KALS/ALS METAR and TAF weather

Enter ICAO airport designator
Station Type Date Time Source
KALS METAR 2018/09/21 22:52 UTC NOAA

KALS 212252Z AUTO 07003KT 10SM CLR 23/01 A3031 RMK AO2 SLP192 T02280011


Station Type Date Time Source
KALS Decoded METAR 2018/09/21 22:52 UTC NOAA

SAN LUIS VALLEY REGIONAL, CO, United States (KALS) 37-26N 105-52W 2299M
Sep 21, 2018 - 06:52 PM EDT / 2018.09.21 2252 UTC
Wind: from the ENE (070 degrees) at 3 MPH (3 KT):0
Visibility: 10 mile(s):0
Sky conditions: clear
Temperature: 73.0 F (22.8 C)
Dew Point: 34.0 F (1.1 C)
Relative Humidity: 23%
Pressure (altimeter): 30.31 in. Hg (1026 hPa)
ob: KALS 212252Z AUTO 07003KT 10SM CLR 23/01 A3031 RMK AO2 SLP192 T02280011
cycle: 23

Station Type Date Time Source
KALS TAF 2018/09/21 18:22 UTC NOAA

TAF KALS 211720Z 2118/2218 VRB05KT P6SM SKC
FM211900 17008KT P6SM SKC
FM212200 15008KT P6SM SCT080
FM220400 VRB05KT P6SM SKC


Example: see airport list